sensor_id;sensor_type;location;lat;lon;timestamp;temperature;humidity
2158;DHT22;41972;48.774;9.282;2023-11-25T00:03:15;2.20;99.90
2158;DHT22;41972;48.774;9.282;2023-11-25T00:05:41;2.20;99.90
2158;DHT22;41972;48.774;9.282;2023-11-25T00:08:07;2.20;99.90
2158;DHT22;41972;48.774;9.282;2023-11-25T00:10:34;2.10;99.90
2158;DHT22;41972;48.774;9.282;2023-11-25T00:13:00;2.20;99.90
2158;DHT22;41972;48.774;9.282;2023-11-25T00:15:26;2.30;99.90
2158;DHT22;41972;48.774;9.282;2023-11-25T00:17:52;2.30;99.90
2158;DHT22;41972;48.774;9.282;2023-11-25T00:20:22;2.10;99.90
2158;DHT22;41972;48.774;9.282;2023-11-25T00:22:48;2.30;99.90
2158;DHT22;41972;48.774;9.282;2023-11-25T00:25:14;2.20;99.90
2158;DHT22;41972;48.774;9.282;2023-11-25T00:30:07;2.20;99.90
2158;DHT22;41972;48.774;9.282;2023-11-25T00:32:33;2.20;99.90
2158;DHT22;41972;48.774;9.282;2023-11-25T00:35:03;2.30;99.90
2158;DHT22;41972;48.774;9.282;2023-11-25T00:37:29;2.30;99.90
2158;DHT22;41972;48.774;9.282;2023-11-25T00:39:54;2.40;99.90
2158;DHT22;41972;48.774;9.282;2023-11-25T00:44:46;2.40;99.90
2158;DHT22;41972;48.774;9.282;2023-11-25T00:47:12;2.30;99.90
2158;DHT22;41972;48.774;9.282;2023-11-25T00:49:38;2.40;99.90
2158;DHT22;41972;48.774;9.282;2023-11-25T00:52:06;2.40;99.90
2158;DHT22;41972;48.774;9.282;2023-11-25T00:54:32;2.40;99.90
2158;DHT22;41972;48.774;9.282;2023-11-25T00:56:57;2.40;99.90
2158;DHT22;41972;48.774;9.282;2023-11-25T00:59:23;2.40;99.90
2158;DHT22;41972;48.774;9.282;2023-11-25T01:01:49;2.40;99.90
2158;DHT22;41972;48.774;9.282;2023-11-25T01:04:15;2.20;99.90
2158;DHT22;41972;48.774;9.282;2023-11-25T01:06:44;2.40;99.90
2158;DHT22;41972;48.774;9.282;2023-11-25T01:09:11;2.40;99.90
2158;DHT22;41972;48.774;9.282;2023-11-25T01:11:38;2.40;99.90
2158;DHT22;41972;48.774;9.282;2023-11-25T01:14:04;2.40;99.90
2158;DHT22;41972;48.774;9.282;2023-11-25T01:16:31;2.50;99.90
2158;DHT22;41972;48.774;9.282;2023-11-25T01:18:56;2.40;99.90
2158;DHT22;41972;48.774;9.282;2023-11-25T01:21:22;2.40;99.90
2158;DHT22;41972;48.774;9.282;2023-11-25T01:26:13;2.40;99.90
2158;DHT22;41972;48.774;9.282;2023-11-25T01:28:39;2.50;99.90
2158;DHT22;41972;48.774;9.282;2023-11-25T01:31:08;2.40;99.90
2158;DHT22;41972;48.774;9.282;2023-11-25T01:33:38;2.40;99.90
2158;DHT22;41972;48.774;9.282;2023-11-25T01:36:04;2.30;99.90
2158;DHT22;41972;48.774;9.282;2023-11-25T01:38:29;2.20;99.90
2158;DHT22;41972;48.774;9.282;2023-11-25T01:40:55;2.20;99.90
2158;DHT22;41972;48.774;9.282;2023-11-25T01:43:24;2.10;99.90
2158;DHT22;41972;48.774;9.282;2023-11-25T01:45:54;2.10;99.90
2158;DHT22;41972;48.774;9.282;2023-11-25T01:48:21;2.10;99.90
2158;DHT22;41972;48.774;9.282;2023-11-25T01:50:48;2.10;99.90
2158;DHT22;41972;48.774;9.282;2023-11-25T01:53:14;2.10;99.90
2158;DHT22;41972;48.774;9.282;2023-11-25T01:55:43;2.00;99.90
2158;DHT22;41972;48.774;9.282;2023-11-25T01:58:10;1.90;99.90
2158;DHT22;41972;48.774;9.282;2023-11-25T02:00:36;2.00;99.90
2158;DHT22;41972;48.774;9.282;2023-11-25T02:03:04;1.90;99.90
2158;DHT22;41972;48.774;9.282;2023-11-25T02:05:31;2.00;99.90
2158;DHT22;41972;48.774;9.282;2023-11-25T02:07:56;2.00;99.90
2158;DHT22;41972;48.774;9.282;2023-11-25T02:10:22;2.00;99.90
2158;DHT22;41972;48.774;9.282;2023-11-25T02:12:48;2.10;99.90
2158;DHT22;41972;48.774;9.282;2023-11-25T02:15:13;2.00;99.90
2158;DHT22;41972;48.774;9.282;2023-11-25T02:17:43;2.10;99.90
2158;DHT22;41972;48.774;9.282;2023-11-25T02:20:10;2.00;99.90
2158;DHT22;41972;48.774;9.282;2023-11-25T02:22:36;2.00;99.90
2158;DHT22;41972;48.774;9.282;2023-11-25T02:25:05;2.00;99.90
2158;DHT22;41972;48.774;9.282;2023-11-25T02:27:32;2.00;99.90
2158;DHT22;41972;48.774;9.282;2023-11-25T02:30:00;1.90;99.90
2158;DHT22;41972;48.774;9.282;2023-11-25T02:32:28;1.80;99.90
2158;DHT22;41972;48.774;9.282;2023-11-25T02:34:53;1.80;99.90
2158;DHT22;41972;48.774;9.282;2023-11-25T02:37:19;1.90;99.90
2158;DHT22;41972;48.774;9.282;2023-11-25T02:39:45;1.80;99.90
2158;DHT22;41972;48.774;9.282;2023-11-25T02:44:39;1.60;99.90
2158;DHT22;41972;48.774;9.282;2023-11-25T02:47:04;1.60;99.90
2158;DHT22;41972;48.774;9.282;2023-11-25T02:49:30;1.50;99.90
2158;DHT22;41972;48.774;9.282;2023-11-25T02:51:56;1.60;99.90
2158;DHT22;41972;48.774;9.282;2023-11-25T02:54:23;1.70;99.90
2158;DHT22;41972;48.774;9.282;2023-11-25T02:56:50;1.70;99.90
2158;DHT22;41972;48.774;9.282;2023-11-25T02:59:16;1.90;99.90
2158;DHT22;41972;48.774;9.282;2023-11-25T03:01:43;1.80;99.90
2158;DHT22;41972;48.774;9.282;2023-11-25T03:04:20;1.70;99.90
2158;DHT22;41972;48.774;9.282;2023-11-25T03:06:46;1.80;99.90
2158;DHT22;41972;48.774;9.282;2023-11-25T03:09:12;1.70;99.90
2158;DHT22;41972;48.774;9.282;2023-11-25T03:11:39;1.90;99.90
2158;DHT22;41972;48.774;9.282;2023-11-25T03:16:35;1.90;99.90
2158;DHT22;41972;48.774;9.282;2023-11-25T03:19:01;1.90;99.90
2158;DHT22;41972;48.774;9.282;2023-11-25T03:21:27;2.00;99.90
2158;DHT22;41972;48.774;9.282;2023-11-25T03:23:53;2.00;99.90
2158;DHT22;41972;48.774;9.282;2023-11-25T03:26:19;1.90;99.90
2158;DHT22;41972;48.774;9.282;2023-11-25T03:28:44;1.90;99.90
2158;DHT22;41972;48.774;9.282;2023-11-25T03:36:04;2.10;99.90
2158;DHT22;41972;48.774;9.282;2023-11-25T03:38:29;1.90;99.90
2158;DHT22;41972;48.774;9.282;2023-11-25T03:40:56;1.90;99.90
2158;DHT22;41972;48.774;9.282;2023-11-25T03:43:23;1.80;99.90
2158;DHT22;41972;48.774;9.282;2023-11-25T03:45:51;1.90;99.90
2158;DHT22;41972;48.774;9.282;2023-11-25T03:48:17;1.90;99.90
2158;DHT22;41972;48.774;9.282;2023-11-25T03:50:43;1.90;99.90
2158;DHT22;41972;48.774;9.282;2023-11-25T03:53:10;1.80;99.90
2158;DHT22;41972;48.774;9.282;2023-11-25T03:55:36;1.90;99.90
2158;DHT22;41972;48.774;9.282;2023-11-25T03:58:02;1.90;99.90
2158;DHT22;41972;48.774;9.282;2023-11-25T04:00:28;1.90;99.90
2158;DHT22;41972;48.774;9.282;2023-11-25T04:02:54;1.90;99.90
2158;DHT22;41972;48.774;9.282;2023-11-25T04:05:20;1.90;99.90
2158;DHT22;41972;48.774;9.282;2023-11-25T04:07:46;1.90;99.90
2158;DHT22;41972;48.774;9.282;2023-11-25T04:10:12;1.90;99.90
2158;DHT22;41972;48.774;9.282;2023-11-25T04:12:42;1.90;99.90
2158;DHT22;41972;48.774;9.282;2023-11-25T04:15:09;1.80;99.90
2158;DHT22;41972;48.774;9.282;2023-11-25T04:20:02;1.80;99.90
2158;DHT22;41972;48.774;9.282;2023-11-25T04:22:33;1.90;99.90
2158;DHT22;41972;48.774;9.282;2023-11-25T04:27:24;2.00;99.90
2158;DHT22;41972;48.774;9.282;2023-11-25T04:29:51;1.80;99.90
2158;DHT22;41972;48.774;9.282;2023-11-25T04:32:17;1.80;99.90
2158;DHT22;41972;48.774;9.282;2023-11-25T04:34:43;1.80;99.90
2158;DHT22;41972;48.774;9.282;2023-11-25T04:37:09;1.70;99.90
2158;DHT22;41972;48.774;9.282;2023-11-25T04:39:35;1.60;99.90
2158;DHT22;41972;48.774;9.282;2023-11-25T04:42:00;1.80;99.90
2158;DHT22;41972;48.774;9.282;2023-11-25T04:46:53;1.70;99.90
2158;DHT22;41972;48.774;9.282;2023-11-25T04:49:18;1.70;99.90
2158;DHT22;41972;48.774;9.282;2023-11-25T04:54:15;1.70;99.90
2158;DHT22;41972;48.774;9.282;2023-11-25T04:56:40;1.60;99.90
2158;DHT22;41972;48.774;9.282;2023-11-25T04:59:06;1.60;99.90
2158;DHT22;41972;48.774;9.282;2023-11-25T05:01:32;1.50;99.90
2158;DHT22;41972;48.774;9.282;2023-11-25T05:03:57;1.40;99.90
2158;DHT22;41972;48.774;9.282;2023-11-25T05:06:24;1.50;99.90
2158;DHT22;41972;48.774;9.282;2023-11-25T05:08:49;1.50;99.90
2158;DHT22;41972;48.774;9.282;2023-11-25T05:11:15;1.40;99.90
2158;DHT22;41972;48.774;9.282;2023-11-25T05:13:41;1.40;99.90
2158;DHT22;41972;48.774;9.282;2023-11-25T05:16:07;1.20;99.90
2158;DHT22;41972;48.774;9.282;2023-11-25T05:18:32;1.20;99.90
2158;DHT22;41972;48.774;9.282;2023-11-25T05:20:58;1.20;99.90
2158;DHT22;41972;48.774;9.282;2023-11-25T05:23:23;1.10;99.90
2158;DHT22;41972;48.774;9.282;2023-11-25T05:30:41;1.10;99.90
2158;DHT22;41972;48.774;9.282;2023-11-25T05:35:33;1.00;99.90
2158;DHT22;41972;48.774;9.282;2023-11-25T05:37:59;1.00;99.90
2158;DHT22;41972;48.774;9.282;2023-11-25T05:42:55;0.80;99.90
2158;DHT22;41972;48.774;9.282;2023-11-25T05:45:23;0.80;99.90
2158;DHT22;41972;48.774;9.282;2023-11-25T05:50:19;0.90;99.90
2158;DHT22;41972;48.774;9.282;2023-11-25T05:55:11;0.90;99.90
2158;DHT22;41972;48.774;9.282;2023-11-25T05:57:37;1.00;99.90
2158;DHT22;41972;48.774;9.282;2023-11-25T06:00:03;1.00;99.90
2158;DHT22;41972;48.774;9.282;2023-11-25T06:02:29;1.00;99.90
2158;DHT22;41972;48.774;9.282;2023-11-25T06:04:55;1.00;99.90
2158;DHT22;41972;48.774;9.282;2023-11-25T06:09:46;1.10;99.90
2158;DHT22;41972;48.774;9.282;2023-11-25T06:12:12;1.10;99.90
2158;DHT22;41972;48.774;9.282;2023-11-25T06:14:39;1.20;99.90
2158;DHT22;41972;48.774;9.282;2023-11-25T06:17:04;1.30;99.90
2158;DHT22;41972;48.774;9.282;2023-11-25T06:21:58;1.40;99.90
2158;DHT22;41972;48.774;9.282;2023-11-25T06:24:26;1.20;99.90
2158;DHT22;41972;48.774;9.282;2023-11-25T06:29:18;1.50;99.90
2158;DHT22;41972;48.774;9.282;2023-11-25T06:31:44;1.50;99.90
2158;DHT22;41972;48.774;9.282;2023-11-25T06:34:11;1.40;99.90
2158;DHT22;41972;48.774;9.282;2023-11-25T06:36:37;1.30;99.90
2158;DHT22;41972;48.774;9.282;2023-11-25T06:39:02;1.30;99.90
2158;DHT22;41972;48.774;9.282;2023-11-25T06:41:30;1.40;99.90
2158;DHT22;41972;48.774;9.282;2023-11-25T06:43:55;1.50;99.90
2158;DHT22;41972;48.774;9.282;2023-11-25T06:48:48;1.50;99.90
2158;DHT22;41972;48.774;9.282;2023-11-25T06:51:13;1.40;99.90
2158;DHT22;41972;48.774;9.282;2023-11-25T06:53:39;1.40;99.90
2158;DHT22;41972;48.774;9.282;2023-11-25T06:56:10;1.40;99.90
2158;DHT22;41972;48.774;9.282;2023-11-25T06:58:37;1.40;99.90
2158;DHT22;41972;48.774;9.282;2023-11-25T07:01:02;1.40;99.90
2158;DHT22;41972;48.774;9.282;2023-11-25T07:03:30;1.60;99.90
2158;DHT22;41972;48.774;9.282;2023-11-25T07:05:56;1.50;99.90
2158;DHT22;41972;48.774;9.282;2023-11-25T07:08:23;1.70;99.90
2158;DHT22;41972;48.774;9.282;2023-11-25T07:10:49;1.60;99.90
2158;DHT22;41972;48.774;9.282;2023-11-25T07:13:24;1.50;99.90
2158;DHT22;41972;48.774;9.282;2023-11-25T07:15:53;1.40;99.90
2158;DHT22;41972;48.774;9.282;2023-11-25T07:18:18;1.30;99.90
2158;DHT22;41972;48.774;9.282;2023-11-25T07:23:10;1.60;99.90
2158;DHT22;41972;48.774;9.282;2023-11-25T07:25:36;1.80;99.90
2158;DHT22;41972;48.774;9.282;2023-11-25T07:28:03;1.80;99.90
2158;DHT22;41972;48.774;9.282;2023-11-25T07:30:28;2.00;99.90
2158;DHT22;41972;48.774;9.282;2023-11-25T07:32:54;2.00;99.90
2158;DHT22;41972;48.774;9.282;2023-11-25T07:35:20;2.10;99.90
2158;DHT22;41972;48.774;9.282;2023-11-25T07:42:41;2.20;99.90
2158;DHT22;41972;48.774;9.282;2023-11-25T07:47:37;1.90;99.90
2158;DHT22;41972;48.774;9.282;2023-11-25T07:50:03;1.80;99.90
2158;DHT22;41972;48.774;9.282;2023-11-25T07:52:28;2.10;99.90
2158;DHT22;41972;48.774;9.282;2023-11-25T07:54:54;2.30;99.90
2158;DHT22;41972;48.774;9.282;2023-11-25T07:57:19;2.40;99.90
2158;DHT22;41972;48.774;9.282;2023-11-25T07:59:45;2.30;99.90
2158;DHT22;41972;48.774;9.282;2023-11-25T08:02:11;2.50;99.90
2158;DHT22;41972;48.774;9.282;2023-11-25T08:04:36;2.60;99.90
2158;DHT22;41972;48.774;9.282;2023-11-25T08:09:28;2.40;99.90
2158;DHT22;41972;48.774;9.282;2023-11-25T08:11:54;2.40;99.90
2158;DHT22;41972;48.774;9.282;2023-11-25T08:14:19;2.40;99.90
2158;DHT22;41972;48.774;9.282;2023-11-25T08:19:12;2.40;99.90
2158;DHT22;41972;48.774;9.282;2023-11-25T08:21:41;2.40;99.90
2158;DHT22;41972;48.774;9.282;2023-11-25T08:26:33;2.50;99.90
2158;DHT22;41972;48.774;9.282;2023-11-25T08:29:00;2.80;99.90
2158;DHT22;41972;48.774;9.282;2023-11-25T08:31:28;2.90;99.90
2158;DHT22;41972;48.774;9.282;2023-11-25T08:33:54;3.10;99.90
2158;DHT22;41972;48.774;9.282;2023-11-25T08:36:20;3.20;99.90
2158;DHT22;41972;48.774;9.282;2023-11-25T08:41:12;3.20;99.90
2158;DHT22;41972;48.774;9.282;2023-11-25T08:43:40;3.00;99.90
2158;DHT22;41972;48.774;9.282;2023-11-25T08:46:09;3.30;99.90
2158;DHT22;41972;48.774;9.282;2023-11-25T08:48:35;4.70;99.90
2158;DHT22;41972;48.774;9.282;2023-11-25T08:51:01;5.00;99.90
2158;DHT22;41972;48.774;9.282;2023-11-25T08:55:54;5.90;99.90
2158;DHT22;41972;48.774;9.282;2023-11-25T08:58:20;5.80;99.90
2158;DHT22;41972;48.774;9.282;2023-11-25T09:03:17;7.60;99.90
2158;DHT22;41972;48.774;9.282;2023-11-25T09:05:46;6.40;99.90
2158;DHT22;41972;48.774;9.282;2023-11-25T09:08:12;5.50;99.90
2158;DHT22;41972;48.774;9.282;2023-11-25T09:10:38;5.20;99.90
2158;DHT22;41972;48.774;9.282;2023-11-25T09:17:56;4.70;99.90
2158;DHT22;41972;48.774;9.282;2023-11-25T09:27:41;5.20;99.90
2158;DHT22;41972;48.774;9.282;2023-11-25T09:30:11;5.20;99.90
2158;DHT22;41972;48.774;9.282;2023-11-25T09:32:41;4.30;99.90
2158;DHT22;41972;48.774;9.282;2023-11-25T09:35:08;4.00;99.90
2158;DHT22;41972;48.774;9.282;2023-11-25T09:37:40;4.00;99.90
2158;DHT22;41972;48.774;9.282;2023-11-25T09:40:07;4.00;99.90
2158;DHT22;41972;48.774;9.282;2023-11-25T09:42:40;3.70;99.90
2158;DHT22;41972;48.774;9.282;2023-11-25T09:45:07;3.90;99.90
2158;DHT22;41972;48.774;9.282;2023-11-25T09:47:35;3.90;99.90
2158;DHT22;41972;48.774;9.282;2023-11-25T09:50:01;4.00;99.90
2158;DHT22;41972;48.774;9.282;2023-11-25T09:52:27;3.90;99.90
2158;DHT22;41972;48.774;9.282;2023-11-25T09:54:59;4.10;99.90
2158;DHT22;41972;48.774;9.282;2023-11-25T09:57:25;4.30;99.90
2158;DHT22;41972;48.774;9.282;2023-11-25T09:59:59;4.00;99.90
2158;DHT22;41972;48.774;9.282;2023-11-25T10:02:25;4.20;99.90
2158;DHT22;41972;48.774;9.282;2023-11-25T10:04:53;4.30;99.90
2158;DHT22;41972;48.774;9.282;2023-11-25T10:07:20;4.50;99.90
2158;DHT22;41972;48.774;9.282;2023-11-25T10:09:46;4.90;99.90
2158;DHT22;41972;48.774;9.282;2023-11-25T10:12:12;5.20;99.90
2158;DHT22;41972;48.774;9.282;2023-11-25T10:14:42;6.00;99.90
2158;DHT22;41972;48.774;9.282;2023-11-25T10:17:21;5.70;99.90
2158;DHT22;41972;48.774;9.282;2023-11-25T10:19:47;6.30;99.90
2158;DHT22;41972;48.774;9.282;2023-11-25T10:22:13;7.20;99.90
2158;DHT22;41972;48.774;9.282;2023-11-25T10:24:47;5.50;99.90
2158;DHT22;41972;48.774;9.282;2023-11-25T10:27:18;5.70;99.90
2158;DHT22;41972;48.774;9.282;2023-11-25T10:29:45;5.90;99.90
2158;DHT22;41972;48.774;9.282;2023-11-25T10:39:34;5.10;99.90
2158;DHT22;41972;48.774;9.282;2023-11-25T10:42:02;4.90;99.90
2158;DHT22;41972;48.774;9.282;2023-11-25T10:44:30;5.10;99.90
2158;DHT22;41972;48.774;9.282;2023-11-25T10:51:52;4.50;99.90
2158;DHT22;41972;48.774;9.282;2023-11-25T10:54:22;4.50;99.90
2158;DHT22;41972;48.774;9.282;2023-11-25T10:56:58;4.80;99.90
2158;DHT22;41972;48.774;9.282;2023-11-25T10:59:26;5.20;99.90
2158;DHT22;41972;48.774;9.282;2023-11-25T11:01:54;4.70;99.90
2158;DHT22;41972;48.774;9.282;2023-11-25T11:04:42;4.80;99.90
2158;DHT22;41972;48.774;9.282;2023-11-25T11:07:15;4.70;99.90
2158;DHT22;41972;48.774;9.282;2023-11-25T11:09:42;5.00;99.90
2158;DHT22;41972;48.774;9.282;2023-11-25T11:12:16;5.00;99.90
2158;DHT22;41972;48.774;9.282;2023-11-25T11:14:47;5.30;99.90
2158;DHT22;41972;48.774;9.282;2023-11-25T11:17:51;5.30;99.90
2158;DHT22;41972;48.774;9.282;2023-11-25T11:20:21;5.60;99.90
2158;DHT22;41972;48.774;9.282;2023-11-25T11:22:50;5.70;99.90
2158;DHT22;41972;48.774;9.282;2023-11-25T11:25:23;5.10;99.90
2158;DHT22;41972;48.774;9.282;2023-11-25T11:30:47;4.80;99.90
2158;DHT22;41972;48.774;9.282;2023-11-25T11:33:19;4.50;99.90
2158;DHT22;41972;48.774;9.282;2023-11-25T11:38:28;4.90;99.90
2158;DHT22;41972;48.774;9.282;2023-11-25T11:41:22;4.70;99.90
2158;DHT22;41972;48.774;9.282;2023-11-25T11:44:15;4.70;99.90
2158;DHT22;41972;48.774;9.282;2023-11-25T11:46:42;4.50;99.90
2158;DHT22;41972;48.774;9.282;2023-11-25T11:49:10;4.50;99.90
2158;DHT22;41972;48.774;9.282;2023-11-25T11:51:37;4.50;99.90
2158;DHT22;41972;48.774;9.282;2023-11-25T11:57:09;4.00;99.90
2158;DHT22;41972;48.774;9.282;2023-11-25T11:59:58;3.80;99.90
2158;DHT22;41972;48.774;9.282;2023-11-25T12:02:30;3.70;99.90
2158;DHT22;41972;48.774;9.282;2023-11-25T12:05:00;3.70;99.90
2158;DHT22;41972;48.774;9.282;2023-11-25T12:07:26;3.50;99.90
2158;DHT22;41972;48.774;9.282;2023-11-25T12:09:54;3.50;99.90
2158;DHT22;41972;48.774;9.282;2023-11-25T12:12:19;2.90;99.90
2158;DHT22;41972;48.774;9.282;2023-11-25T12:14:45;3.40;99.90
2158;DHT22;41972;48.774;9.282;2023-11-25T12:17:13;3.70;99.90
2158;DHT22;41972;48.774;9.282;2023-11-25T12:19:38;3.70;99.90
2158;DHT22;41972;48.774;9.282;2023-11-25T12:24:35;3.70;99.90
2158;DHT22;41972;48.774;9.282;2023-11-25T12:27:03;3.90;99.90
2158;DHT22;41972;48.774;9.282;2023-11-25T12:29:33;3.90;99.90
2158;DHT22;41972;48.774;9.282;2023-11-25T12:31:59;3.60;99.90
2158;DHT22;41972;48.774;9.282;2023-11-25T12:34:25;3.50;99.90
2158;DHT22;41972;48.774;9.282;2023-11-25T12:36:50;3.50;99.90
2158;DHT22;41972;48.774;9.282;2023-11-25T12:39:16;3.50;99.90
2158;DHT22;41972;48.774;9.282;2023-11-25T12:41:43;3.50;99.90
2158;DHT22;41972;48.774;9.282;2023-11-25T12:44:09;3.70;99.90
2158;DHT22;41972;48.774;9.282;2023-11-25T12:46:36;3.60;99.90
2158;DHT22;41972;48.774;9.282;2023-11-25T12:49:20;3.50;99.90
2158;DHT22;41972;48.774;9.282;2023-11-25T12:51:47;3.50;99.90
2158;DHT22;41972;48.774;9.282;2023-11-25T12:54:12;3.50;99.90
2158;DHT22;41972;48.774;9.282;2023-11-25T12:56:40;3.50;99.90
2158;DHT22;41972;48.774;9.282;2023-11-25T12:59:05;3.70;99.90
2158;DHT22;41972;48.774;9.282;2023-11-25T13:01:32;3.70;99.90
2158;DHT22;41972;48.774;9.282;2023-11-25T13:04:04;3.40;99.90
2158;DHT22;41972;48.774;9.282;2023-11-25T13:08:56;3.70;99.90
2158;DHT22;41972;48.774;9.282;2023-11-25T13:11:21;3.80;99.90
2158;DHT22;41972;48.774;9.282;2023-11-25T13:13:47;3.90;99.90
2158;DHT22;41972;48.774;9.282;2023-11-25T13:16:13;3.70;99.90
2158;DHT22;41972;48.774;9.282;2023-11-25T13:18:46;3.60;99.90
2158;DHT22;41972;48.774;9.282;2023-11-25T13:21:13;3.50;99.90
2158;DHT22;41972;48.774;9.282;2023-11-25T13:26:05;3.70;99.90
2158;DHT22;41972;48.774;9.282;2023-11-25T13:28:33;4.00;99.90
2158;DHT22;41972;48.774;9.282;2023-11-25T13:30:59;3.80;99.90
2158;DHT22;41972;48.774;9.282;2023-11-25T13:33:25;3.80;99.90
2158;DHT22;41972;48.774;9.282;2023-11-25T13:35:52;3.80;99.90
2158;DHT22;41972;48.774;9.282;2023-11-25T13:38:17;4.10;99.90
2158;DHT22;41972;48.774;9.282;2023-11-25T13:40:43;4.00;99.90
2158;DHT22;41972;48.774;9.282;2023-11-25T13:43:10;3.90;99.90
2158;DHT22;41972;48.774;9.282;2023-11-25T13:45:40;3.80;99.90
2158;DHT22;41972;48.774;9.282;2023-11-25T13:48:09;4.00;99.90
2158;DHT22;41972;48.774;9.282;2023-11-25T13:50:37;4.10;99.90
2158;DHT22;41972;48.774;9.282;2023-11-25T13:53:03;4.00;99.90
2158;DHT22;41972;48.774;9.282;2023-11-25T13:55:32;3.90;99.90
2158;DHT22;41972;48.774;9.282;2023-11-25T13:58:07;3.80;99.90
2158;DHT22;41972;48.774;9.282;2023-11-25T14:00:33;3.80;99.90
2158;DHT22;41972;48.774;9.282;2023-11-25T14:02:59;3.80;99.90
2158;DHT22;41972;48.774;9.282;2023-11-25T14:05:26;3.70;99.90
2158;DHT22;41972;48.774;9.282;2023-11-25T14:07:51;3.50;99.90
2158;DHT22;41972;48.774;9.282;2023-11-25T14:10:17;3.60;99.90
2158;DHT22;41972;48.774;9.282;2023-11-25T14:12:44;3.70;99.90
2158;DHT22;41972;48.774;9.282;2023-11-25T14:15:10;3.70;99.90
2158;DHT22;41972;48.774;9.282;2023-11-25T14:17:37;3.80;99.90
2158;DHT22;41972;48.774;9.282;2023-11-25T14:20:08;3.90;99.90
2158;DHT22;41972;48.774;9.282;2023-11-25T14:22:45;3.80;99.90
2158;DHT22;41972;48.774;9.282;2023-11-25T14:25:18;3.80;99.90
2158;DHT22;41972;48.774;9.282;2023-11-25T14:27:46;3.70;99.90
2158;DHT22;41972;48.774;9.282;2023-11-25T14:30:14;3.60;99.90
2158;DHT22;41972;48.774;9.282;2023-11-25T14:32:43;3.60;99.90
2158;DHT22;41972;48.774;9.282;2023-11-25T14:35:12;3.80;99.90
2158;DHT22;41972;48.774;9.282;2023-11-25T14:37:39;3.80;99.90
2158;DHT22;41972;48.774;9.282;2023-11-25T14:40:06;3.70;99.90
2158;DHT22;41972;48.774;9.282;2023-11-25T14:42:32;3.80;99.90
2158;DHT22;41972;48.774;9.282;2023-11-25T14:44:59;3.80;99.90
2158;DHT22;41972;48.774;9.282;2023-11-25T14:47:25;3.60;99.90
2158;DHT22;41972;48.774;9.282;2023-11-25T14:49:51;3.70;99.90
2158;DHT22;41972;48.774;9.282;2023-11-25T14:52:17;3.80;99.90
2158;DHT22;41972;48.774;9.282;2023-11-25T14:54:43;3.90;99.90
2158;DHT22;41972;48.774;9.282;2023-11-25T14:57:09;3.90;99.90
2158;DHT22;41972;48.774;9.282;2023-11-25T14:59:35;4.00;99.90
2158;DHT22;41972;48.774;9.282;2023-11-25T15:02:03;3.90;99.90
2158;DHT22;41972;48.774;9.282;2023-11-25T15:04:29;3.90;99.90
2158;DHT22;41972;48.774;9.282;2023-11-25T15:06:55;4.00;99.90
2158;DHT22;41972;48.774;9.282;2023-11-25T15:09:21;4.00;99.90
2158;DHT22;41972;48.774;9.282;2023-11-25T15:11:47;3.90;99.90
2158;DHT22;41972;48.774;9.282;2023-11-25T15:14:13;3.90;99.90
2158;DHT22;41972;48.774;9.282;2023-11-25T15:16:38;3.90;99.90
2158;DHT22;41972;48.774;9.282;2023-11-25T15:19:04;3.90;99.90
2158;DHT22;41972;48.774;9.282;2023-11-25T15:21:29;3.90;99.90
2158;DHT22;41972;48.774;9.282;2023-11-25T15:23:55;4.00;99.90
2158;DHT22;41972;48.774;9.282;2023-11-25T15:26:23;4.00;99.90
2158;DHT22;41972;48.774;9.282;2023-11-25T15:28:49;3.90;99.90
2158;DHT22;41972;48.774;9.282;2023-11-25T15:31:16;3.90;99.90
2158;DHT22;41972;48.774;9.282;2023-11-25T15:33:42;4.00;99.90
2158;DHT22;41972;48.774;9.282;2023-11-25T15:36:10;4.00;99.90
2158;DHT22;41972;48.774;9.282;2023-11-25T15:38:36;4.00;99.90
2158;DHT22;41972;48.774;9.282;2023-11-25T15:41:02;3.90;99.90
2158;DHT22;41972;48.774;9.282;2023-11-25T15:43:30;3.90;99.90
2158;DHT22;41972;48.774;9.282;2023-11-25T15:45:56;3.90;99.90
2158;DHT22;41972;48.774;9.282;2023-11-25T15:48:21;3.90;99.90
2158;DHT22;41972;48.774;9.282;2023-11-25T15:50:48;3.90;99.90
2158;DHT22;41972;48.774;9.282;2023-11-25T15:53:14;3.90;99.90
2158;DHT22;41972;48.774;9.282;2023-11-25T15:55:40;3.90;99.90
2158;DHT22;41972;48.774;9.282;2023-11-25T15:58:05;3.90;99.90
2158;DHT22;41972;48.774;9.282;2023-11-25T16:00:32;3.90;99.90
2158;DHT22;41972;48.774;9.282;2023-11-25T16:02:58;4.00;99.90
2158;DHT22;41972;48.774;9.282;2023-11-25T16:05:23;3.90;99.90
2158;DHT22;41972;48.774;9.282;2023-11-25T16:07:50;3.90;99.90
2158;DHT22;41972;48.774;9.282;2023-11-25T16:10:17;3.90;99.90
2158;DHT22;41972;48.774;9.282;2023-11-25T16:12:43;3.90;99.90
2158;DHT22;41972;48.774;9.282;2023-11-25T16:15:09;3.90;99.90
2158;DHT22;41972;48.774;9.282;2023-11-25T16:17:35;4.00;99.90
2158;DHT22;41972;48.774;9.282;2023-11-25T16:20:01;4.00;99.90
2158;DHT22;41972;48.774;9.282;2023-11-25T16:22:28;3.90;99.90
2158;DHT22;41972;48.774;9.282;2023-11-25T16:24:54;3.90;99.90
2158;DHT22;41972;48.774;9.282;2023-11-25T16:27:21;4.00;99.90
2158;DHT22;41972;48.774;9.282;2023-11-25T16:29:48;3.90;99.90
2158;DHT22;41972;48.774;9.282;2023-11-25T16:32:17;4.00;99.90
2158;DHT22;41972;48.774;9.282;2023-11-25T16:34:45;3.90;99.90
2158;DHT22;41972;48.774;9.282;2023-11-25T16:37:11;3.90;99.90
2158;DHT22;41972;48.774;9.282;2023-11-25T16:39:36;3.90;99.90
2158;DHT22;41972;48.774;9.282;2023-11-25T16:42:02;3.90;99.90
2158;DHT22;41972;48.774;9.282;2023-11-25T16:44:29;3.90;99.90
2158;DHT22;41972;48.774;9.282;2023-11-25T16:46:54;3.90;99.90
2158;DHT22;41972;48.774;9.282;2023-11-25T16:49:20;3.90;99.90
2158;DHT22;41972;48.774;9.282;2023-11-25T16:51:46;3.80;99.90
2158;DHT22;41972;48.774;9.282;2023-11-25T16:54:11;3.80;99.90
2158;DHT22;41972;48.774;9.282;2023-11-25T16:56:37;3.90;99.90
2158;DHT22;41972;48.774;9.282;2023-11-25T16:59:03;3.90;99.90
2158;DHT22;41972;48.774;9.282;2023-11-25T17:01:30;3.90;99.90
2158;DHT22;41972;48.774;9.282;2023-11-25T17:03:56;3.90;99.90
2158;DHT22;41972;48.774;9.282;2023-11-25T17:06:22;3.80;99.90
2158;DHT22;41972;48.774;9.282;2023-11-25T17:08:48;3.90;99.90
2158;DHT22;41972;48.774;9.282;2023-11-25T17:11:14;4.00;99.90
2158;DHT22;41972;48.774;9.282;2023-11-25T17:13:39;4.00;99.90
2158;DHT22;41972;48.774;9.282;2023-11-25T17:16:05;4.00;99.90
2158;DHT22;41972;48.774;9.282;2023-11-25T17:18:30;3.90;99.90
2158;DHT22;41972;48.774;9.282;2023-11-25T17:20:56;3.90;99.90
2158;DHT22;41972;48.774;9.282;2023-11-25T17:23:21;4.00;99.90
2158;DHT22;41972;48.774;9.282;2023-11-25T17:25:47;4.00;99.90
2158;DHT22;41972;48.774;9.282;2023-11-25T17:28:12;4.10;99.90
2158;DHT22;41972;48.774;9.282;2023-11-25T17:30:38;4.00;99.90
2158;DHT22;41972;48.774;9.282;2023-11-25T17:33:04;4.00;99.90
2158;DHT22;41972;48.774;9.282;2023-11-25T17:35:31;4.00;99.90
2158;DHT22;41972;48.774;9.282;2023-11-25T17:37:56;4.00;99.90
2158;DHT22;41972;48.774;9.282;2023-11-25T17:40:22;4.00;99.90
2158;DHT22;41972;48.774;9.282;2023-11-25T17:42:48;4.00;99.90
2158;DHT22;41972;48.774;9.282;2023-11-25T17:45:14;4.00;99.90
2158;DHT22;41972;48.774;9.282;2023-11-25T17:47:39;3.90;99.90
2158;DHT22;41972;48.774;9.282;2023-11-25T17:50:05;3.90;99.90
2158;DHT22;41972;48.774;9.282;2023-11-25T17:52:32;3.90;99.90
2158;DHT22;41972;48.774;9.282;2023-11-25T17:54:58;3.90;99.90
2158;DHT22;41972;48.774;9.282;2023-11-25T17:57:24;4.00;99.90
2158;DHT22;41972;48.774;9.282;2023-11-25T17:59:50;4.00;99.90